sensor_id;sensor_type;location;lat;lon;timestamp;pressure;altitude;pressure_sealevel;temperature;humidity
11415;BME280;5763;42.714;23.244;2023-04-16T00:01:59;94063.03;;;13.65;45.02
11415;BME280;5763;42.714;23.244;2023-04-16T00:04:26;94064.81;;;13.68;45.45
11415;BME280;5763;42.714;23.244;2023-04-16T00:06:53;94051.66;;;13.52;46.33
11415;BME280;5763;42.714;23.244;2023-04-16T00:09:21;94057.91;;;13.53;46.65
11415;BME280;5763;42.714;23.244;2023-04-16T00:11:48;94053.09;;;13.48;45.87
11415;BME280;5763;42.714;23.244;2023-04-16T00:14:15;94061.84;;;13.46;45.63
11415;BME280;5763;42.714;23.244;2023-04-16T00:16:41;94058.81;;;13.44;45.04
11415;BME280;5763;42.714;23.244;2023-04-16T00:19:08;94061.84;;;13.46;45.28
11415;BME280;5763;42.714;23.244;2023-04-16T00:21:35;94056.78;;;13.39;46.30
11415;BME280;5763;42.714;23.244;2023-04-16T00:24:02;94056.25;;;13.41;46.68
11415;BME280;5763;42.714;23.244;2023-04-16T00:26:30;94058.19;;;13.35;46.77
11415;BME280;5763;42.714;23.244;2023-04-16T00:28:57;94053.34;;;13.24;46.39
11415;BME280;5763;42.714;23.244;2023-04-16T00:31:27;94048.25;;;13.17;45.43
11415;BME280;5763;42.714;23.244;2023-04-16T00:33:54;94056.16;;;13.10;46.67
11415;BME280;5763;42.714;23.244;2023-04-16T00:36:22;94055.31;;;13.04;46.89
11415;BME280;5763;42.714;23.244;2023-04-16T00:38:48;94049.50;;;12.96;45.98
11415;BME280;5763;42.714;23.244;2023-04-16T00:41:15;94048.53;;;12.99;45.86
11415;BME280;5763;42.714;23.244;2023-04-16T00:43:43;94051.56;;;13.01;46.48
11415;BME280;5763;42.714;23.244;2023-04-16T00:46:11;94054.41;;;12.92;47.32
11415;BME280;5763;42.714;23.244;2023-04-16T00:48:39;94036.72;;;12.93;46.87
11415;BME280;5763;42.714;23.244;2023-04-16T00:51:07;94042.53;;;12.81;47.05
11415;BME280;5763;42.714;23.244;2023-04-16T00:53:34;94043.41;;;12.72;47.16
11415;BME280;5763;42.714;23.244;2023-04-16T00:56:02;94046.34;;;12.69;47.38
11415;BME280;5763;42.714;23.244;2023-04-16T00:58:30;94048.06;;;12.66;47.79
11415;BME280;5763;42.714;23.244;2023-04-16T01:00:58;94049.41;;;12.56;47.82
11415;BME280;5763;42.714;23.244;2023-04-16T01:03:33;94043.53;;;12.63;48.25
11415;BME280;5763;42.714;23.244;2023-04-16T01:06:02;94036.47;;;12.57;48.04
11415;BME280;5763;42.714;23.244;2023-04-16T01:08:29;94034.38;;;12.52;48.28
11415;BME280;5763;42.714;23.244;2023-04-16T01:10:56;94031.84;;;12.48;47.80
11415;BME280;5763;42.714;23.244;2023-04-16T01:13:22;94028.81;;;12.46;48.08
11415;BME280;5763;42.714;23.244;2023-04-16T01:15:50;94038.97;;;12.40;48.03
11415;BME280;5763;42.714;23.244;2023-04-16T01:18:19;94031.50;;;12.41;47.90
11415;BME280;5763;42.714;23.244;2023-04-16T01:20:48;94030.19;;;12.36;47.93
11415;BME280;5763;42.714;23.244;2023-04-16T01:23:15;94034.34;;;12.32;48.47
11415;BME280;5763;42.714;23.244;2023-04-16T01:25:42;94041.66;;;12.20;48.84
11415;BME280;5763;42.714;23.244;2023-04-16T01:28:09;94037.41;;;12.19;48.81
11415;BME280;5763;42.714;23.244;2023-04-16T01:30:36;94027.94;;;12.20;47.75
11415;BME280;5763;42.714;23.244;2023-04-16T01:33:03;94027.41;;;12.16;47.81
11415;BME280;5763;42.714;23.244;2023-04-16T01:35:30;94028.34;;;12.13;48.04
11415;BME280;5763;42.714;23.244;2023-04-16T01:37:58;94028.06;;;12.11;48.24
11415;BME280;5763;42.714;23.244;2023-04-16T01:40:25;94025.03;;;12.09;48.96
11415;BME280;5763;42.714;23.244;2023-04-16T01:42:52;94023.78;;;12.10;49.02
11415;BME280;5763;42.714;23.244;2023-04-16T01:45:19;94024.09;;;11.98;49.10
11415;BME280;5763;42.714;23.244;2023-04-16T01:47:47;94019.84;;;11.97;49.15
11415;BME280;5763;42.714;23.244;2023-04-16T01:50:15;94015.19;;;12.03;49.07
11415;BME280;5763;42.714;23.244;2023-04-16T01:52:42;94013.63;;;11.96;49.06
11415;BME280;5763;42.714;23.244;2023-04-16T01:55:10;94020.44;;;11.86;49.77
11415;BME280;5763;42.714;23.244;2023-04-16T01:57:37;94012.78;;;11.90;49.66
11415;BME280;5763;42.714;23.244;2023-04-16T02:00:05;94005.13;;;11.80;49.91
11415;BME280;5763;42.714;23.244;2023-04-16T02:02:33;94010.59;;;11.80;49.85
11415;BME280;5763;42.714;23.244;2023-04-16T02:05:00;94003.03;;;11.75;50.10
11415;BME280;5763;42.714;23.244;2023-04-16T02:07:27;94010.41;;;11.83;50.06
11415;BME280;5763;42.714;23.244;2023-04-16T02:09:56;94003.00;;;11.89;49.82
11415;BME280;5763;42.714;23.244;2023-04-16T02:12:25;94008.13;;;11.96;50.23
11415;BME280;5763;42.714;23.244;2023-04-16T02:14:51;94004.25;;;11.88;50.84
11415;BME280;5763;42.714;23.244;2023-04-16T02:17:18;94001.69;;;11.99;51.14
11415;BME280;5763;42.714;23.244;2023-04-16T02:19:45;94006.22;;;12.02;50.99
11415;BME280;5763;42.714;23.244;2023-04-16T02:22:12;94008.31;;;11.93;51.79
11415;BME280;5763;42.714;23.244;2023-04-16T02:24:38;94000.56;;;11.91;51.82
11415;BME280;5763;42.714;23.244;2023-04-16T02:27:05;94001.50;;;11.88;51.80
11415;BME280;5763;42.714;23.244;2023-04-16T02:29:33;93999.06;;;11.90;51.31
11415;BME280;5763;42.714;23.244;2023-04-16T02:32:00;94001.03;;;11.90;50.86
11415;BME280;5763;42.714;23.244;2023-04-16T02:34:27;94002.66;;;11.82;50.98
11415;BME280;5763;42.714;23.244;2023-04-16T02:36:54;94004.06;;;11.77;50.63
11415;BME280;5763;42.714;23.244;2023-04-16T02:39:22;94003.31;;;11.77;50.48
11415;BME280;5763;42.714;23.244;2023-04-16T02:41:49;93995.28;;;11.73;50.83
11415;BME280;5763;42.714;23.244;2023-04-16T02:44:16;94000.03;;;11.73;50.76
11415;BME280;5763;42.714;23.244;2023-04-16T02:46:44;93999.06;;;11.76;50.88
11415;BME280;5763;42.714;23.244;2023-04-16T02:49:11;94005.31;;;11.76;50.70
11415;BME280;5763;42.714;23.244;2023-04-16T02:51:38;94003.03;;;11.75;50.83
11415;BME280;5763;42.714;23.244;2023-04-16T02:54:05;94002.78;;;11.73;51.03
11415;BME280;5763;42.714;23.244;2023-04-16T02:56:31;94004.47;;;11.70;51.21
11415;BME280;5763;42.714;23.244;2023-04-16T02:58:58;93998.31;;;11.61;51.74
11415;BME280;5763;42.714;23.244;2023-04-16T03:01:25;93990.09;;;11.75;51.50
11415;BME280;5763;42.714;23.244;2023-04-16T03:03:54;93997.09;;;11.76;52.09
11415;BME280;5763;42.714;23.244;2023-04-16T03:06:20;93996.78;;;11.74;51.92
11415;BME280;5763;42.714;23.244;2023-04-16T03:08:47;93995.75;;;11.72;52.37
11415;BME280;5763;42.714;23.244;2023-04-16T03:11:14;93999.25;;;11.72;52.35
11415;BME280;5763;42.714;23.244;2023-04-16T03:13:41;94005.31;;;11.76;51.90
11415;BME280;5763;42.714;23.244;2023-04-16T03:16:08;94002.28;;;11.74;51.89
11415;BME280;5763;42.714;23.244;2023-04-16T03:18:34;94001.06;;;11.75;51.77
11415;BME280;5763;42.714;23.244;2023-04-16T03:21:03;94009.66;;;11.83;51.46
11415;BME280;5763;42.714;23.244;2023-04-16T03:23:30;94010.97;;;11.87;51.67
11415;BME280;5763;42.714;23.244;2023-04-16T03:25:57;94008.31;;;11.93;52.47
11415;BME280;5763;42.714;23.244;2023-04-16T03:28:24;94011.34;;;11.95;52.50
11415;BME280;5763;42.714;23.244;2023-04-16T03:30:51;94011.72;;;12.02;52.31
11415;BME280;5763;42.714;23.244;2023-04-16T03:33:18;94007.25;;;12.05;52.65
11415;BME280;5763;42.714;23.244;2023-04-16T03:35:45;94007.25;;;12.05;52.09
11415;BME280;5763;42.714;23.244;2023-04-16T03:38:13;94022.69;;;12.02;52.12
11415;BME280;5763;42.714;23.244;2023-04-16T03:40:39;94020.78;;;12.08;52.29
11415;BME280;5763;42.714;23.244;2023-04-16T03:43:06;94016.22;;;12.05;52.80
11415;BME280;5763;42.714;23.244;2023-04-16T03:45:33;94013.78;;;12.07;52.67
11415;BME280;5763;42.714;23.244;2023-04-16T03:48:00;94024.94;;;12.04;51.46
11415;BME280;5763;42.714;23.244;2023-04-16T03:50:26;94021.44;;;12.03;51.31
11415;BME280;5763;42.714;23.244;2023-04-16T03:52:53;94022.09;;;11.98;51.20
11415;BME280;5763;42.714;23.244;2023-04-16T03:55:21;94021.16;;;12.01;51.02
11415;BME280;5763;42.714;23.244;2023-04-16T03:57:48;94020.59;;;11.97;50.92
11415;BME280;5763;42.714;23.244;2023-04-16T04:00:15;94015.69;;;12.01;50.97
11415;BME280;5763;42.714;23.244;2023-04-16T04:02:41;94015.56;;;12.10;50.63
11415;BME280;5763;42.714;23.244;2023-04-16T04:05:08;94023.22;;;12.21;51.40
11415;BME280;5763;42.714;23.244;2023-04-16T04:07:35;94020.94;;;12.19;52.37
11415;BME280;5763;42.714;23.244;2023-04-16T04:10:02;94017.25;;;12.22;52.88
11415;BME280;5763;42.714;23.244;2023-04-16T04:12:30;94030.19;;;12.22;52.64
11415;BME280;5763;42.714;23.244;2023-04-16T04:14:57;94023.47;;;12.23;52.58
11415;BME280;5763;42.714;23.244;2023-04-16T04:17:24;94027.00;;;12.23;53.02
11415;BME280;5763;42.714;23.244;2023-04-16T04:19:51;94034.94;;;12.21;52.99
11415;BME280;5763;42.714;23.244;2023-04-16T04:22:18;94031.91;;;12.19;53.13
11415;BME280;5763;42.714;23.244;2023-04-16T04:24:44;94036.81;;;12.30;53.07
11415;BME280;5763;42.714;23.244;2023-04-16T04:27:11;94038.88;;;12.35;52.00
11415;BME280;5763;42.714;23.244;2023-04-16T04:29:39;94037.66;;;12.36;52.26
11415;BME280;5763;42.714;23.244;2023-04-16T04:32:06;94046.91;;;12.38;52.13
11415;BME280;5763;42.714;23.244;2023-04-16T04:34:33;94043.59;;;12.34;51.85
11415;BME280;5763;42.714;23.244;2023-04-16T04:37:00;94051.94;;;12.40;52.70
11415;BME280;5763;42.714;23.244;2023-04-16T04:39:27;94043.59;;;12.34;51.80
11415;BME280;5763;42.714;23.244;2023-04-16T04:41:54;94042.56;;;12.32;51.69
11415;BME280;5763;42.714;23.244;2023-04-16T04:44:20;94044.59;;;12.31;51.33
11415;BME280;5763;42.714;23.244;2023-04-16T04:46:49;94054.59;;;12.34;50.62
11415;BME280;5763;42.714;23.244;2023-04-16T04:49:17;94058.56;;;12.33;50.64
11415;BME280;5763;42.714;23.244;2023-04-16T04:51:43;94056.66;;;12.39;50.82
11415;BME280;5763;42.714;23.244;2023-04-16T04:54:11;94052.88;;;12.37;51.39
11415;BME280;5763;42.714;23.244;2023-04-16T04:56:38;94046.66;;;12.36;51.65
11415;BME280;5763;42.714;23.244;2023-04-16T04:59:05;94052.47;;;12.44;52.10
11415;BME280;5763;42.714;23.244;2023-04-16T05:01:32;94048.69;;;12.41;52.28
11415;BME280;5763;42.714;23.244;2023-04-16T05:04:00;94047.75;;;12.44;51.58
11415;BME280;5763;42.714;23.244;2023-04-16T05:06:27;94049.41;;;12.56;51.48
11415;BME280;5763;42.714;23.244;2023-04-16T05:08:54;94051.78;;;12.63;52.18
11415;BME280;5763;42.714;23.244;2023-04-16T05:11:21;94048.06;;;12.66;52.40
11415;BME280;5763;42.714;23.244;2023-04-16T05:13:49;94047.53;;;12.62;52.24
11415;BME280;5763;42.714;23.244;2023-04-16T05:16:16;94053.91;;;12.74;52.16
11415;BME280;5763;42.714;23.244;2023-04-16T05:18:43;94054.00;;;12.79;51.39
11415;BME280;5763;42.714;23.244;2023-04-16T05:21:11;94054.53;;;12.83;51.09
11415;BME280;5763;42.714;23.244;2023-04-16T05:23:39;94052.00;;;12.80;50.51
11415;BME280;5763;42.714;23.244;2023-04-16T05:26:06;94058.31;;;12.86;50.68
11415;BME280;5763;42.714;23.244;2023-04-16T05:28:33;94058.75;;;12.99;49.98
11415;BME280;5763;42.714;23.244;2023-04-16T05:31:01;94059.94;;;13.12;49.65
11415;BME280;5763;42.714;23.244;2023-04-16T05:33:28;94054.72;;;13.14;49.60
11415;BME280;5763;42.714;23.244;2023-04-16T05:35:55;94052.56;;;13.24;49.04
11415;BME280;5763;42.714;23.244;2023-04-16T05:38:23;94047.69;;;13.33;49.11
11415;BME280;5763;42.714;23.244;2023-04-16T05:40:50;94049.03;;;13.43;48.61
11415;BME280;5763;42.714;23.244;2023-04-16T05:43:17;94039.72;;;13.35;48.47
11415;BME280;5763;42.714;23.244;2023-04-16T05:45:43;94050.09;;;13.26;48.51
11415;BME280;5763;42.714;23.244;2023-04-16T05:48:10;94050.03;;;13.20;48.53
11415;BME280;5763;42.714;23.244;2023-04-16T05:50:38;94057.88;;;13.07;48.19
11415;BME280;5763;42.714;23.244;2023-04-16T05:53:06;94066.31;;;13.04;48.21
11415;BME280;5763;42.714;23.244;2023-04-16T05:55:35;94058.72;;;13.13;48.33
11415;BME280;5763;42.714;23.244;2023-04-16T05:58:02;94051.81;;;13.23;48.17
11415;BME280;5763;42.714;23.244;2023-04-16T06:00:30;94053.50;;;13.41;47.41
11415;BME280;5763;42.714;23.244;2023-04-16T06:02:57;94048.09;;;13.46;47.33
11415;BME280;5763;42.714;23.244;2023-04-16T06:05:25;94059.41;;;13.54;46.79
11415;BME280;5763;42.714;23.244;2023-04-16T06:07:52;94054.47;;;13.58;47.14
11415;BME280;5763;42.714;23.244;2023-04-16T06:10:20;94045.44;;;13.57;46.70
11415;BME280;5763;42.714;23.244;2023-04-16T06:12:48;94048.41;;;13.54;46.80
11415;BME280;5763;42.714;23.244;2023-04-16T06:15:15;94062.59;;;13.47;47.41
11415;BME280;5763;42.714;23.244;2023-04-16T06:17:42;94059.75;;;13.61;47.65
11415;BME280;5763;42.714;23.244;2023-04-16T06:20:11;94058.66;;;13.53;47.41
11415;BME280;5763;42.714;23.244;2023-04-16T06:22:38;94062.59;;;13.72;47.28
11415;BME280;5763;42.714;23.244;2023-04-16T06:25:05;94055.69;;;13.82;46.85
11415;BME280;5763;42.714;23.244;2023-04-16T06:27:32;94062.31;;;13.96;46.73
11415;BME280;5763;42.714;23.244;2023-04-16T06:30:01;94049.44;;;14.07;46.33
11415;BME280;5763;42.714;23.244;2023-04-16T06:32:27;94042.75;;;14.14;46.00
11415;BME280;5763;42.714;23.244;2023-04-16T06:34:54;94041.00;;;14.16;46.12
11415;BME280;5763;42.714;23.244;2023-04-16T06:37:23;94046.31;;;14.20;46.70
11415;BME280;5763;42.714;23.244;2023-04-16T06:39:50;94041.84;;;14.22;46.42
11415;BME280;5763;42.714;23.244;2023-04-16T06:42:17;94039.75;;;14.17;46.74
11415;BME280;5763;42.714;23.244;2023-04-16T06:44:44;94037.34;;;14.25;46.68
11415;BME280;5763;42.714;23.244;2023-04-16T06:47:12;94040.63;;;14.29;46.75
11415;BME280;5763;42.714;23.244;2023-04-16T06:49:39;94045.56;;;14.19;47.37
11415;BME280;5763;42.714;23.244;2023-04-16T06:52:06;94036.81;;;14.21;47.53
11415;BME280;5763;42.714;23.244;2023-04-16T06:54:33;94049.41;;;14.33;47.91
11415;BME280;5763;42.714;23.244;2023-04-16T06:57:00;94046.00;;;14.43;47.11
11415;BME280;5763;42.714;23.244;2023-04-16T06:59:27;94051.38;;;14.63;46.63
11415;BME280;5763;42.714;23.244;2023-04-16T07:01:54;94043.19;;;14.74;47.23
11415;BME280;5763;42.714;23.244;2023-04-16T07:04:23;94041.75;;;14.84;46.85
11415;BME280;5763;42.714;23.244;2023-04-16T07:06:52;94033.16;;;14.71;47.29
11415;BME280;5763;42.714;23.244;2023-04-16T07:09:19;94036.19;;;14.73;47.12
11415;BME280;5763;42.714;23.244;2023-04-16T07:11:46;94043.44;;;14.76;47.29
11415;BME280;5763;42.714;23.244;2023-04-16T07:14:13;94046.63;;;14.64;46.95
11415;BME280;5763;42.714;23.244;2023-04-16T07:16:40;94039.38;;;14.66;46.51
11415;BME280;5763;42.714;23.244;2023-04-16T07:19:07;94045.94;;;14.74;47.18
11415;BME280;5763;42.714;23.244;2023-04-16T07:21:35;94054.81;;;14.95;46.97
11415;BME280;5763;42.714;23.244;2023-04-16T07:24:02;94051.63;;;15.02;46.89
11415;BME280;5763;42.714;23.244;2023-04-16T07:26:29;94041.97;;;14.81;46.78
11415;BME280;5763;42.714;23.244;2023-04-16T07:28:56;94046.19;;;14.76;47.00
11415;BME280;5763;42.714;23.244;2023-04-16T07:31:23;94049.06;;;14.93;46.77
11415;BME280;5763;42.714;23.244;2023-04-16T07:33:50;94048.63;;;15.05;46.28
11415;BME280;5763;42.714;23.244;2023-04-16T07:36:16;94048.13;;;15.07;46.85
11415;BME280;5763;42.714;23.244;2023-04-16T07:38:44;94045.66;;;15.20;46.77
11415;BME280;5763;42.714;23.244;2023-04-16T07:41:12;94044.97;;;15.30;46.34
11415;BME280;5763;42.714;23.244;2023-04-16T07:43:39;94049.22;;;15.31;46.68
11415;BME280;5763;42.714;23.244;2023-04-16T07:46:06;94043.81;;;15.48;45.63
11415;BME280;5763;42.714;23.244;2023-04-16T07:48:33;94044.09;;;15.55;45.43
11415;BME280;5763;42.714;23.244;2023-04-16T07:51:00;94045.13;;;15.69;45.02
11415;BME280;5763;42.714;23.244;2023-04-16T07:53:27;94045.63;;;15.62;45.40
11415;BME280;5763;42.714;23.244;2023-04-16T07:55:55;94036.59;;;15.67;44.76
11415;BME280;5763;42.714;23.244;2023-04-16T07:58:21;94033.09;;;15.72;44.99
11415;BME280;5763;42.714;23.244;2023-04-16T08:00:48;94041.13;;;15.81;44.71
11415;BME280;5763;42.714;23.244;2023-04-16T08:03:15;94033.09;;;15.88;45.10
11415;BME280;5763;42.714;23.244;2023-04-16T08:05:42;94039.91;;;16.04;44.31
11415;BME280;5763;42.714;23.244;2023-04-16T08:08:09;94036.41;;;16.31;44.85
11415;BME280;5763;42.714;23.244;2023-04-16T08:10:36;94038.94;;;16.45;45.19
11415;BME280;5763;42.714;23.244;2023-04-16T08:13:04;94035.69;;;16.52;43.90
11415;BME280;5763;42.714;23.244;2023-04-16T08:15:31;94036.13;;;16.78;44.47
11415;BME280;5763;42.714;23.244;2023-04-16T08:17:57;94034.06;;;17.06;44.18
11415;BME280;5763;42.714;23.244;2023-04-16T08:20:24;94032.00;;;17.23;44.45
11415;BME280;5763;42.714;23.244;2023-04-16T08:22:52;94028.94;;;17.32;44.46
11415;BME280;5763;42.714;23.244;2023-04-16T08:25:19;94021.56;;;17.57;42.81
11415;BME280;5763;42.714;23.244;2023-04-16T08:27:47;94024.28;;;17.63;43.45
11415;BME280;5763;42.714;23.244;2023-04-16T08:30:16;94026.06;;;17.60;43.46
11415;BME280;5763;42.714;23.244;2023-04-16T08:32:42;94026.78;;;17.66;43.72
11415;BME280;5763;42.714;23.244;2023-04-16T08:35:10;94021.03;;;17.58;43.12
11415;BME280;5763;42.714;23.244;2023-04-16T08:37:37;94014.19;;;17.71;43.02
11415;BME280;5763;42.714;23.244;2023-04-16T08:40:05;94013.72;;;17.67;42.59
11415;BME280;5763;42.714;23.244;2023-04-16T08:42:33;94006.91;;;17.67;43.24
11415;BME280;5763;42.714;23.244;2023-04-16T08:45:07;94002.78;;;17.45;43.32
11415;BME280;5763;42.714;23.244;2023-04-16T08:47:35;94012.03;;;17.52;43.21
11415;BME280;5763;42.714;23.244;2023-04-16T08:50:03;94006.69;;;17.60;42.20
11415;BME280;5763;42.714;23.244;2023-04-16T08:52:30;93999.66;;;17.65;42.84
11415;BME280;5763;42.714;23.244;2023-04-16T08:55:03;93999.41;;;17.98;42.94
11415;BME280;5763;42.714;23.244;2023-04-16T08:57:37;93995.66;;;17.95;41.62
11415;BME280;5763;42.714;23.244;2023-04-16T09:00:06;93998.81;;;18.16;41.44
11415;BME280;5763;42.714;23.244;2023-04-16T09:02:35;93992.91;;;18.24;40.84
11415;BME280;5763;42.714;23.244;2023-04-16T09:05:03;93990.38;;;18.32;41.05
11415;BME280;5763;42.714;23.244;2023-04-16T09:07:31;93989.28;;;18.41;40.37
11415;BME280;5763;42.714;23.244;2023-04-16T09:09:59;93987.84;;;18.28;40.05
11415;BME280;5763;42.714;23.244;2023-04-16T09:12:27;93985.78;;;18.05;40.52
11415;BME280;5763;42.714;23.244;2023-04-16T09:14:56;93990.81;;;18.07;40.08
11415;BME280;5763;42.714;23.244;2023-04-16T09:17:25;93993.38;;;17.99;40.94
11415;BME280;5763;42.714;23.244;2023-04-16T09:19:54;94002.94;;;17.98;41.09
11415;BME280;5763;42.714;23.244;2023-04-16T09:22:21;93997.13;;;18.02;40.43
11415;BME280;5763;42.714;23.244;2023-04-16T09:24:47;93994.84;;;18.06;40.75
11415;BME280;5763;42.714;23.244;2023-04-16T09:27:14;93991.41;;;17.94;40.27
11415;BME280;5763;42.714;23.244;2023-04-16T09:29:42;93994.03;;;17.76;40.21
11415;BME280;5763;42.714;23.244;2023-04-16T09:32:10;93989.00;;;17.80;40.70
11415;BME280;5763;42.714;23.244;2023-04-16T09:37:32;94000.72;;;18.26;39.84
11415;BME280;5763;42.714;23.244;2023-04-16T09:40:00;93996.81;;;18.11;39.92
11415;BME280;5763;42.714;23.244;2023-04-16T09:42:29;93986.00;;;18.07;39.26
11415;BME280;5763;42.714;23.244;2023-04-16T09:44:57;93992.34;;;18.02;39.91
11415;BME280;5763;42.714;23.244;2023-04-16T09:47:25;93995.34;;;18.04;39.70
11415;BME280;5763;42.714;23.244;2023-04-16T09:49:57;93983.16;;;18.18;39.48
11415;BME280;5763;42.714;23.244;2023-04-16T09:52:24;93987.03;;;18.39;38.64
11415;BME280;5763;42.714;23.244;2023-04-16T09:54:52;93979.38;;;18.75;38.40
11415;BME280;5763;42.714;23.244;2023-04-16T09:57:20;93983.19;;;19.20;36.71
11415;BME280;5763;42.714;23.244;2023-04-16T09:59:48;93973.94;;;19.36;37.11
11415;BME280;5763;42.714;23.244;2023-04-16T10:02:17;93983.53;;;19.35;37.35
11415;BME280;5763;42.714;23.244;2023-04-16T10:04:48;93967.03;;;19.61;37.74
11415;BME280;5763;42.714;23.244;2023-04-16T10:07:15;93968.34;;;20.10;37.17
11415;BME280;5763;42.714;23.244;2023-04-16T10:09:42;93967.38;;;20.39;36.38
11415;BME280;5763;42.714;23.244;2023-04-16T10:12:10;93965.03;;;20.43;34.69
11415;BME280;5763;42.714;23.244;2023-04-16T10:14:38;93971.03;;;20.15;34.40
11415;BME280;5763;42.714;23.244;2023-04-16T10:17:05;93967.75;;;19.98;34.32
11415;BME280;5763;42.714;23.244;2023-04-16T10:19:32;93964.19;;;19.85;34.40
11415;BME280;5763;42.714;23.244;2023-04-16T10:21:59;93960.63;;;19.84;34.41
11415;BME280;5763;42.714;23.244;2023-04-16T10:24:28;93960.56;;;19.53;34.65
11415;BME280;5763;42.714;23.244;2023-04-16T10:26:56;93957.19;;;19.23;34.87
11415;BME280;5763;42.714;23.244;2023-04-16T10:29:25;93964.78;;;19.17;35.00
11415;BME280;5763;42.714;23.244;2023-04-16T10:31:53;93955.94;;;19.18;34.37
11415;BME280;5763;42.714;23.244;2023-04-16T10:34:21;93945.13;;;19.39;33.58
11415;BME280;5763;42.714;23.244;2023-04-16T10:36:49;93943.41;;;19.36;34.62
11415;BME280;5763;42.714;23.244;2023-04-16T10:39:18;93941.25;;;19.29;35.25
11415;BME280;5763;42.714;23.244;2023-04-16T10:41:45;93941.91;;;19.35;33.82
11415;BME280;5763;42.714;23.244;2023-04-16T10:44:16;93939.13;;;19.35;34.23
11415;BME280;5763;42.714;23.244;2023-04-16T10:46:45;93937.69;;;19.47;34.64
11415;BME280;5763;42.714;23.244;2023-04-16T10:49:16;93945.88;;;19.58;34.75
11415;BME280;5763;42.714;23.244;2023-04-16T10:51:52;93945.88;;;19.58;33.72
11415;BME280;5763;42.714;23.244;2023-04-16T10:54:22;93949.88;;;19.44;33.95
11415;BME280;5763;42.714;23.244;2023-04-16T10:56:49;93947.81;;;19.44;34.52
11415;BME280;5763;42.714;23.244;2023-04-16T10:59:17;93941.91;;;19.35;33.75
11415;BME280;5763;42.714;23.244;2023-04-16T11:01:47;93937.50;;;19.45;34.37
11415;BME280;5763;42.714;23.244;2023-04-16T11:04:37;93929.84;;;19.51;35.34
11415;BME280;5763;42.714;23.244;2023-04-16T11:07:06;93922.25;;;19.70;33.64
11415;BME280;5763;42.714;23.244;2023-04-16T11:09:50;93915.50;;;19.97;34.13
11415;BME280;5763;42.714;23.244;2023-04-16T11:12:19;93924.09;;;20.43;33.78
11415;BME280;5763;42.714;23.244;2023-04-16T11:14:47;93918.59;;;20.95;34.19
11415;BME280;5763;42.714;23.244;2023-04-16T11:17:16;93914.56;;;21.43;33.85
11415;BME280;5763;42.714;23.244;2023-04-16T11:19:43;93913.50;;;21.46;33.96
11415;BME280;5763;42.714;23.244;2023-04-16T11:22:12;93912.66;;;21.38;33.78
11415;BME280;5763;42.714;23.244;2023-04-16T11:24:41;93914.41;;;21.28;33.46
11415;BME280;5763;42.714;23.244;2023-04-16T11:27:09;93911.94;;;21.24;33.24
11415;BME280;5763;42.714;23.244;2023-04-16T11:29:37;93899.97;;;21.03;33.45
11415;BME280;5763;42.714;23.244;2023-04-16T11:32:04;93896.22;;;20.62;33.98
11415;BME280;5763;42.714;23.244;2023-04-16T11:34:32;93891.56;;;20.25;34.78
11415;BME280;5763;42.714;23.244;2023-04-16T11:36:59;93895.00;;;20.31;34.01
11415;BME280;5763;42.714;23.244;2023-04-16T11:39:26;93895.13;;;20.39;35.02
11415;BME280;5763;42.714;23.244;2023-04-16T11:41:53;93888.25;;;20.27;34.75
11415;BME280;5763;42.714;23.244;2023-04-16T11:44:21;93883.06;;;20.05;35.66
11415;BME280;5763;42.714;23.244;2023-04-16T11:46:48;93878.31;;;19.87;36.18
11415;BME280;5763;42.714;23.244;2023-04-16T11:49:15;93874.81;;;19.68;36.84
11415;BME280;5763;42.714;23.244;2023-04-16T11:51:44;93880.78;;;19.59;36.95
11415;BME280;5763;42.714;23.244;2023-04-16T11:54:22;93879.13;;;19.50;37.15
11415;BME280;5763;42.714;23.244;2023-04-16T11:56:50;93875.38;;;19.48;37.44
11415;BME280;5763;42.714;23.244;2023-04-16T11:59:19;93866.38;;;19.42;37.94
11415;BME280;5763;42.714;23.244;2023-04-16T12:01:48;93858.84;;;19.24;37.93
11415;BME280;5763;42.714;23.244;2023-04-16T12:04:17;93856.47;;;19.28;38.13
11415;BME280;5763;42.714;23.244;2023-04-16T12:07:04;93864.44;;;19.37;37.58
11415;BME280;5763;42.714;23.244;2023-04-16T12:09:31;93854.25;;;19.26;37.69
11415;BME280;5763;42.714;23.244;2023-04-16T12:11:59;93858.50;;;19.46;36.53
11415;BME280;5763;42.714;23.244;2023-04-16T12:14:26;93846.22;;;19.41;36.91
11415;BME280;5763;42.714;23.244;2023-04-16T12:16:53;93842.19;;;19.55;36.23
11415;BME280;5763;42.714;23.244;2023-04-16T12:19:20;93841.38;;;19.60;nan
11415;BME280;5763;42.714;23.244;2023-04-16T12:21:48;93832.94;;;19.97;35.77
11415;BME280;5763;42.714;23.244;2023-04-16T12:24:17;93838.69;;;20.31;35.93
11415;BME280;5763;42.714;23.244;2023-04-16T12:26:50;93838.88;;;20.33;34.83
11415;BME280;5763;42.714;23.244;2023-04-16T12:29:21;93841.88;;;20.48;35.35
11415;BME280;5763;42.714;23.244;2023-04-16T12:31:48;93830.44;;;20.51;35.41
11415;BME280;5763;42.714;23.244;2023-04-16T12:34:16;93837.28;;;20.37;35.43
11415;BME280;5763;42.714;23.244;2023-04-16T12:36:44;93839.09;;;20.35;34.87
11415;BME280;5763;42.714;23.244;2023-04-16T12:39:11;93827.56;;;20.31;34.13
11415;BME280;5763;42.714;23.244;2023-04-16T12:41:42;93826.47;;;20.34;33.63
11415;BME280;5763;42.714;23.244;2023-04-16T12:44:11;93824.66;;;20.10;34.30
11415;BME280;5763;42.714;23.244;2023-04-16T12:46:38;93821.00;;;20.02;34.33
11415;BME280;5763;42.714;23.244;2023-04-16T12:49:06;93825.53;;;19.87;34.76
11415;BME280;5763;42.714;23.244;2023-04-16T12:51:33;93825.38;;;19.66;35.06
11415;BME280;5763;42.714;23.244;2023-04-16T12:54:02;93823.53;;;19.56;34.86
11415;BME280;5763;42.714;23.244;2023-04-16T12:56:30;93822.50;;;19.40;35.30
11415;BME280;5763;42.714;23.244;2023-04-16T12:58:58;93827.84;;;19.20;36.09
11415;BME280;5763;42.714;23.244;2023-04-16T13:01:25;93815.25;;;19.00;36.76
11415;BME280;5763;42.714;23.244;2023-04-16T13:03:52;93816.31;;;18.97;37.09
11415;BME280;5763;42.714;23.244;2023-04-16T13:06:19;93811.88;;;18.89;37.31